createdAt,value
2022-11-17T00:00:48.063Z,1.83
2022-11-17T00:03:16.395Z,2.77
2022-11-17T00:05:43.972Z,2.57
2022-11-17T00:08:11.504Z,3.63
2022-11-17T00:10:39.039Z,2.30
2022-11-17T00:13:24.723Z,3.57
2022-11-17T00:15:52.255Z,1.93
2022-11-17T00:18:39.212Z,1.53
2022-11-17T00:21:21.901Z,1.47
2022-11-17T00:23:49.278Z,6.53
2022-11-17T00:26:16.821Z,1.87
2022-11-17T00:28:44.372Z,2.90
2022-11-17T00:31:32.521Z,1.93
2022-11-17T00:34:05.777Z,2.40
2022-11-17T00:36:42.572Z,1.27
2022-11-17T00:39:10.873Z,3.17
2022-11-17T00:41:38.397Z,1.90
2022-11-17T00:44:06.741Z,5.87
2022-11-17T00:46:34.274Z,2.13
2022-11-17T00:49:01.793Z,4.47
2022-11-17T00:51:30.113Z,5.13
2022-11-17T00:53:57.659Z,5.13
2022-11-17T00:56:25.202Z,4.50
2022-11-17T00:58:52.751Z,4.87
2022-11-17T01:01:21.073Z,3.90
2022-11-17T01:03:48.578Z,1.57
2022-11-17T01:06:16.902Z,2.20
2022-11-17T01:08:44.445Z,5.33
2022-11-17T01:11:14.478Z,5.90
2022-11-17T01:13:42.007Z,2.30
2022-11-17T01:16:09.543Z,3.83
2022-11-17T01:18:37.081Z,3.97
2022-11-17T01:21:04.645Z,3.70
2022-11-17T01:23:32.400Z,7.53
2022-11-17T01:26:05.672Z,2.07
2022-11-17T01:28:33.249Z,3.27
2022-11-17T01:31:00.781Z,3.07
2022-11-17T01:33:28.306Z,2.70
2022-11-17T01:35:56.727Z,4.43
2022-11-17T01:38:24.251Z,1.33
2022-11-17T01:40:52.556Z,2.97
2022-11-17T01:43:38.150Z,2.50
2022-11-17T01:46:05.672Z,1.73
2022-11-17T01:48:33.984Z,1.30
2022-11-17T01:51:01.640Z,1.47
2022-11-17T01:53:29.162Z,2.23
2022-11-17T01:56:00.150Z,4.83
2022-11-17T01:58:27.706Z,2.80
2022-11-17T02:00:55.240Z,2.47
2022-11-17T02:03:23.532Z,2.17
2022-11-17T02:06:06.190Z,2.67
2022-11-17T02:08:33.734Z,5.55
2022-11-17T02:11:01.366Z,4.30
2022-11-17T02:13:28.840Z,4.03
2022-11-17T02:15:56.371Z,2.80
2022-11-17T02:18:23.883Z,3.00
2022-11-17T02:21:12.467Z,2.00
2022-11-17T02:24:10.109Z,1.83
2022-11-17T02:26:40.471Z,3.33
2022-11-17T02:29:13.794Z,2.85
2022-11-17T02:31:59.535Z,2.07
2022-11-17T02:34:38.916Z,4.30
2022-11-17T02:37:25.167Z,3.33
2022-11-17T02:40:01.753Z,5.07
2022-11-17T02:42:59.731Z,4.43
2022-11-17T02:45:27.261Z,3.37
2022-11-17T02:47:55.548Z,4.00
2022-11-17T02:50:28.095Z,1.97
2022-11-17T02:52:51.396Z,1.67
2022-11-17T02:55:18.922Z,3.00
2022-11-17T02:57:48.136Z,4.50
2022-11-17T03:00:15.818Z,3.00
2022-11-17T03:03:07.731Z,2.70
2022-11-17T03:05:59.329Z,4.13
2022-11-17T03:08:36.725Z,2.17
2022-11-17T03:11:04.266Z,3.20
2022-11-17T03:13:35.003Z,4.20
2022-11-17T03:16:08.231Z,3.83
2022-11-17T03:19:03.172Z,2.70
2022-11-17T03:21:33.480Z,2.63
2022-11-17T03:24:07.237Z,4.00
2022-11-17T03:26:38.475Z,2.40
2022-11-17T03:29:06.018Z,5.57
2022-11-17T03:31:33.544Z,3.40
2022-11-17T03:34:01.078Z,3.80
2022-11-17T03:36:31.370Z,8.63
2022-11-17T03:39:04.910Z,2.87
2022-11-17T03:41:32.436Z,3.73
2022-11-17T03:44:00.768Z,4.80
2022-11-17T03:46:28.304Z,2.70
2022-11-17T03:49:32.302Z,5.30
2022-11-17T03:51:59.833Z,3.97
2022-11-17T03:54:27.359Z,6.47
2022-11-17T03:56:54.903Z,7.13
2022-11-17T03:59:25.341Z,4.00
2022-11-17T04:01:52.892Z,7.80
2022-11-17T04:04:20.436Z,4.57
2022-11-17T04:06:47.967Z,5.13
2022-11-17T04:09:21.309Z,10.80
2022-11-17T04:12:02.013Z,5.03
2022-11-17T04:14:47.830Z,6.47
2022-11-17T04:17:16.162Z,8.37
2022-11-17T04:19:43.698Z,6.30
2022-11-17T04:22:11.240Z,7.60
2022-11-17T04:24:38.828Z,11.73
2022-11-17T04:27:24.733Z,10.37
2022-11-17T04:29:52.296Z,8.73
2022-11-17T04:32:19.831Z,7.47
2022-11-17T04:34:47.614Z,12.60
2022-11-17T04:37:15.571Z,9.73
2022-11-17T04:39:43.095Z,6.27
2022-11-17T04:42:10.633Z,7.33
2022-11-17T04:44:38.982Z,6.03
2022-11-17T04:47:06.527Z,5.23
2022-11-17T04:49:34.095Z,11.35
2022-11-17T04:52:01.674Z,9.48
2022-11-17T04:54:29.210Z,10.88
2022-11-17T04:56:56.741Z,10.63
2022-11-17T04:59:24.337Z,6.70
2022-11-17T05:01:51.958Z,11.03
2022-11-17T05:04:28.022Z,8.50
2022-11-17T05:06:55.617Z,8.90
2022-11-17T05:09:23.128Z,8.17
2022-11-17T05:12:10.146Z,7.53
2022-11-17T05:14:37.680Z,10.37
2022-11-17T05:17:10.917Z,8.67
2022-11-17T05:19:33.562Z,10.17
2022-11-17T05:22:01.108Z,9.53
2022-11-17T05:24:28.623Z,8.97
2022-11-17T05:26:56.551Z,5.57
2022-11-17T05:29:24.096Z,10.40
2022-11-17T05:31:51.632Z,8.53
2022-11-17T05:34:19.196Z,8.93
2022-11-17T05:36:46.741Z,8.77
2022-11-17T05:39:15.052Z,12.00
2022-11-17T05:41:43.210Z,7.70
2022-11-17T05:44:10.733Z,9.67
2022-11-17T05:46:39.024Z,11.83
2022-11-17T05:49:07.376Z,12.23
2022-11-17T05:51:34.930Z,15.70
2022-11-17T05:54:02.466Z,10.83
2022-11-17T05:56:42.279Z,12.13
2022-11-17T05:59:27.848Z,14.93
2022-11-17T06:01:55.762Z,8.43
2022-11-17T06:04:23.387Z,12.33
2022-11-17T06:06:50.892Z,13.40
2022-11-17T06:09:18.427Z,11.60
2022-11-17T06:11:45.938Z,14.20
2022-11-17T06:14:14.243Z,13.03
2022-11-17T06:16:41.807Z,11.03
2022-11-17T06:19:21.166Z,12.13
2022-11-17T06:22:10.978Z,8.80
2022-11-17T06:24:16.306Z,12.23
2022-11-17T06:26:43.879Z,11.57
2022-11-17T06:29:11.458Z,12.50
2022-11-17T06:31:39.749Z,11.57
2022-11-17T06:34:07.282Z,12.70
2022-11-17T06:36:34.848Z,7.30
2022-11-17T06:39:03.148Z,10.23
2022-11-17T06:41:30.676Z,11.63
2022-11-17T06:43:59.034Z,6.47
2022-11-17T06:46:26.560Z,14.83
2022-11-17T06:48:54.085Z,10.63
2022-11-17T06:51:21.688Z,11.20
2022-11-17T06:53:49.301Z,11.50
2022-11-17T06:56:17.664Z,8.83
2022-11-17T06:58:45.265Z,10.40
2022-11-17T07:01:12.900Z,10.60
2022-11-17T07:03:40.432Z,8.43
2022-11-17T07:06:09.009Z,4.75
2022-11-17T07:08:36.939Z,5.47
2022-11-17T07:11:04.171Z,6.13
2022-11-17T07:13:32.548Z,6.53
2022-11-17T07:16:03.608Z,4.97
2022-11-17T07:18:31.167Z,33.10
2022-11-17T07:20:59.342Z,26.40
2022-11-17T07:23:26.943Z,13.17
2022-11-17T07:25:54.557Z,11.93
2022-11-17T07:28:22.154Z,9.43
2022-11-17T07:30:49.765Z,11.53
2022-11-17T07:33:18.136Z,6.57
2022-11-17T07:35:46.548Z,12.13
2022-11-17T07:38:14.114Z,7.07
2022-11-17T07:40:41.686Z,8.00
2022-11-17T07:43:09.299Z,10.67
2022-11-17T07:45:37.641Z,13.13
2022-11-17T07:48:05.294Z,10.43
2022-11-17T07:50:33.881Z,11.80
2022-11-17T07:53:01.455Z,11.07
2022-11-17T07:55:29.061Z,12.75
2022-11-17T07:57:56.729Z,9.90
2022-11-17T08:00:24.326Z,8.43
2022-11-17T08:02:51.939Z,12.83
2022-11-17T08:05:19.533Z,10.10
2022-11-17T08:07:47.137Z,10.07
2022-11-17T08:10:15.558Z,13.03
2022-11-17T08:12:43.172Z,15.67
2022-11-17T08:15:11.536Z,8.57
2022-11-17T08:17:39.139Z,6.70
2022-11-17T08:20:06.819Z,10.43
2022-11-17T08:22:34.423Z,10.33
2022-11-17T08:25:01.994Z,9.77
2022-11-17T08:27:30.377Z,10.03
2022-11-17T08:29:58.747Z,6.73
2022-11-17T08:32:26.363Z,12.93
2022-11-17T08:34:54.018Z,13.43
2022-11-17T08:37:21.580Z,8.87
2022-11-17T08:39:49.140Z,12.03
2022-11-17T08:42:16.823Z,9.02
2022-11-17T08:44:44.415Z,10.73
2022-11-17T08:47:12.787Z,7.13
2022-11-17T08:49:40.381Z,9.00
2022-11-17T08:52:07.984Z,5.87
2022-11-17T08:54:35.548Z,8.57
2022-11-17T08:57:03.248Z,11.27
2022-11-17T08:59:30.791Z,11.65
2022-11-17T09:01:59.137Z,8.63
2022-11-17T09:04:26.775Z,6.90
2022-11-17T09:06:54.357Z,9.73
2022-11-17T09:09:21.923Z,9.33
2022-11-17T09:11:50.247Z,10.00
2022-11-17T09:14:17.814Z,12.77
2022-11-17T09:16:45.336Z,9.50
2022-11-17T09:19:13.722Z,10.47
2022-11-17T09:21:41.298Z,8.37
2022-11-17T09:24:08.872Z,10.20
2022-11-17T09:26:36.501Z,9.20
2022-11-17T09:29:04.842Z,10.17
2022-11-17T09:31:32.453Z,9.20
2022-11-17T09:34:04.818Z,10.88
2022-11-17T09:36:27.567Z,11.23
2022-11-17T09:38:55.125Z,11.27
2022-11-17T09:41:22.760Z,11.33
2022-11-17T09:43:52.763Z,8.70
2022-11-17T09:46:26.040Z,11.48
2022-11-17T09:48:59.421Z,11.63
2022-11-17T09:51:26.968Z,10.70
2022-11-17T09:53:57.042Z,11.33
2022-11-17T09:56:24.616Z,11.73
2022-11-17T09:58:55.448Z,8.63
2022-11-17T10:01:23.761Z,5.87
2022-11-17T10:03:51.458Z,7.63
2022-11-17T10:06:22.108Z,9.50
2022-11-17T10:08:55.887Z,11.60
2022-11-17T10:11:32.274Z,7.27
2022-11-17T10:14:08.492Z,6.80
2022-11-17T10:16:36.076Z,6.93
2022-11-17T10:19:03.697Z,10.13
2022-11-17T10:21:31.280Z,7.47
2022-11-17T10:23:58.835Z,13.10
2022-11-17T10:26:26.418Z,5.63
2022-11-17T10:29:08.759Z,7.77
2022-11-17T10:31:33.146Z,7.20
2022-11-17T10:34:01.490Z,7.40
2022-11-17T10:36:32.019Z,6.37
2022-11-17T10:38:59.682Z,5.07
2022-11-17T10:41:42.248Z,7.90
2022-11-17T10:44:24.525Z,11.43
2022-11-17T10:47:00.570Z,6.90
2022-11-17T10:49:28.575Z,10.33
2022-11-17T10:52:12.089Z,6.77
2022-11-17T10:54:40.433Z,5.10
2022-11-17T10:57:08.001Z,5.07
2022-11-17T10:59:56.690Z,5.77
2022-11-17T11:02:21.085Z,6.03
2022-11-17T11:04:48.679Z,6.37
2022-11-17T11:07:22.191Z,6.73
2022-11-17T11:10:13.837Z,6.63
2022-11-17T11:12:42.194Z,6.57
2022-11-17T11:15:15.346Z,4.23
2022-11-17T11:17:42.934Z,6.35
2022-11-17T11:20:10.529Z,4.83
2022-11-17T11:22:41.855Z,5.50
2022-11-17T11:25:12.076Z,13.43
2022-11-17T11:28:04.366Z,7.22
2022-11-17T11:30:34.834Z,6.40
2022-11-17T11:33:24.069Z,5.20
2022-11-17T11:36:15.797Z,8.00
2022-11-17T11:39:01.506Z,8.73
2022-11-17T11:41:47.115Z,9.50
2022-11-17T11:44:35.661Z,8.17
2022-11-17T11:47:11.821Z,7.75
2022-11-17T11:50:04.040Z,7.30
2022-11-17T11:52:31.589Z,8.70
2022-11-17T11:55:01.857Z,8.95
2022-11-17T11:57:30.261Z,7.37
2022-11-17T12:00:03.536Z,12.30
2022-11-17T12:02:25.475Z,4.90
2022-11-17T12:05:11.629Z,11.63
2022-11-17T12:07:41.924Z,9.43
2022-11-17T12:10:21.469Z,6.60
2022-11-17T12:12:49.022Z,6.73
2022-11-17T12:15:19.660Z,7.40
2022-11-17T12:17:53.363Z,3.43
2022-11-17T12:20:39.081Z,6.90
2022-11-17T12:23:34.097Z,6.57
2022-11-17T12:26:02.431Z,3.20
2022-11-17T12:28:32.655Z,3.83
2022-11-17T12:31:03.702Z,3.47
2022-11-17T12:33:52.688Z,8.30
2022-11-17T12:36:32.374Z,5.57
2022-11-17T12:39:05.926Z,6.13
2022-11-17T12:41:48.849Z,5.10
2022-11-17T12:44:38.236Z,4.77
2022-11-17T12:47:15.023Z,4.33
2022-11-17T12:49:43.353Z,5.93
2022-11-17T12:52:10.947Z,5.03
2022-11-17T12:54:39.320Z,3.97
2022-11-17T12:57:09.285Z,3.70
2022-11-17T13:00:07.706Z,4.63
2022-11-17T13:02:41.248Z,3.07
2022-11-17T13:05:08.820Z,4.80
2022-11-17T13:07:37.030Z,2.63
2022-11-17T13:10:04.497Z,7.17
2022-11-17T13:12:32.042Z,3.80
2022-11-17T13:15:02.097Z,6.40
2022-11-17T13:17:30.414Z,6.75
2022-11-17T13:19:58.000Z,5.23
2022-11-17T13:22:25.582Z,5.37
2022-11-17T13:24:53.127Z,5.47
2022-11-17T13:27:26.503Z,6.13
2022-11-17T13:30:12.449Z,4.00
2022-11-17T13:32:40.065Z,4.90
2022-11-17T13:35:25.910Z,4.17
2022-11-17T13:38:12.009Z,8.00
2022-11-17T13:40:39.599Z,4.13
2022-11-17T13:43:07.143Z,4.43
2022-11-17T13:45:34.729Z,3.57
2022-11-17T13:48:02.323Z,3.33
2022-11-17T13:50:30.663Z,3.43
2022-11-17T13:53:00.710Z,2.90
2022-11-17T13:55:29.072Z,3.40
2022-11-17T13:57:59.108Z,3.40
2022-11-17T14:00:27.448Z,1.97
2022-11-17T14:02:57.817Z,2.33
2022-11-17T14:05:26.156Z,3.67
2022-11-17T14:07:53.736Z,3.37
2022-11-17T14:10:21.608Z,4.90
2022-11-17T14:12:52.727Z,2.73
2022-11-17T14:15:26.341Z,2.40
2022-11-17T14:17:53.905Z,3.13
2022-11-17T14:20:24.428Z,5.20
2022-11-17T14:23:10.580Z,4.63
2022-11-17T14:25:44.017Z,3.37
2022-11-17T14:28:14.712Z,4.07
2022-11-17T14:30:42.285Z,5.10
2022-11-17T14:33:13.521Z,3.77
2022-11-17T14:35:37.519Z,2.07
2022-11-17T14:38:05.115Z,4.07
2022-11-17T14:40:33.474Z,4.07
2022-11-17T14:43:01.100Z,2.87
2022-11-17T14:45:28.654Z,5.17
2022-11-17T14:47:56.238Z,3.40
2022-11-17T14:50:23.859Z,5.37
2022-11-17T14:52:51.434Z,5.03
2022-11-17T14:55:19.009Z,2.87
2022-11-17T14:57:47.204Z,4.30
2022-11-17T15:00:20.115Z,5.13
2022-11-17T15:02:42.304Z,6.07
2022-11-17T15:05:09.916Z,5.70
2022-11-17T15:07:38.298Z,8.23
2022-11-17T15:10:05.880Z,6.87
2022-11-17T15:12:34.824Z,4.60
2022-11-17T15:17:39.208Z,4.33
2022-11-17T15:20:07.179Z,5.77
2022-11-17T15:22:38.177Z,10.07
2022-11-17T15:25:06.692Z,4.87
2022-11-17T15:27:34.262Z,7.87
2022-11-17T15:30:01.928Z,6.43
2022-11-17T15:32:29.646Z,5.57
2022-11-17T15:34:57.969Z,11.90
2022-11-17T15:37:25.512Z,5.27
2022-11-17T15:39:53.153Z,5.33
2022-11-17T15:42:20.730Z,3.20
2022-11-17T15:44:48.300Z,6.47
2022-11-17T15:47:15.897Z,5.63
2022-11-17T15:49:43.479Z,6.90
2022-11-17T15:52:11.808Z,4.73
2022-11-17T15:54:39.448Z,9.40
2022-11-17T15:57:06.992Z,8.10
2022-11-17T15:59:34.519Z,7.90
2022-11-17T16:02:02.138Z,4.87
2022-11-17T16:04:29.724Z,7.37
2022-11-17T16:06:57.312Z,15.33
2022-11-17T16:09:24.885Z,6.63
2022-11-17T16:11:53.286Z,6.30
2022-11-17T16:14:20.858Z,10.47
2022-11-17T16:16:48.600Z,11.37
2022-11-17T16:19:16.530Z,8.43
2022-11-17T16:21:48.609Z,6.97
2022-11-17T16:24:16.852Z,7.50
2022-11-17T16:26:47.312Z,10.70
2022-11-17T16:29:15.297Z,10.70
2022-11-17T16:31:54.679Z,9.03
2022-11-17T16:34:22.471Z,10.30
2022-11-17T16:36:50.428Z,7.83
2022-11-17T16:39:20.202Z,8.37
2022-11-17T16:41:48.621Z,6.33
2022-11-17T16:44:16.761Z,13.03
2022-11-17T16:46:44.570Z,9.13
2022-11-17T16:49:12.431Z,13.27
2022-11-17T16:51:44.319Z,8.70
2022-11-17T16:54:12.179Z,7.20
2022-11-17T16:56:42.623Z,10.40
2022-11-17T16:59:10.484Z,12.95
2022-11-17T17:01:38.359Z,6.67
2022-11-17T17:04:12.167Z,11.20
2022-11-17T17:06:43.102Z,7.80
2022-11-17T17:09:11.789Z,11.03
2022-11-17T17:11:42.839Z,26.87
2022-11-17T17:14:12.440Z,17.50
2022-11-17T17:16:46.049Z,47.63
2022-11-17T17:19:52.203Z,11.60
2022-11-17T17:21:52.308Z,12.40
2022-11-17T17:24:23.453Z,10.23
2022-11-17T17:26:59.410Z,11.37
2022-11-17T17:29:38.834Z,11.57
2022-11-17T17:32:06.821Z,12.10
2022-11-17T17:34:35.328Z,12.00
2022-11-17T17:37:03.151Z,8.30
2022-11-17T17:39:31.118Z,10.23
2022-11-17T17:42:00.405Z,12.37
2022-11-17T17:44:32.262Z,9.47
2022-11-17T17:47:00.162Z,10.30
2022-11-17T17:49:28.119Z,10.97
2022-11-17T17:52:00.389Z,10.60
2022-11-17T17:54:29.597Z,8.80
2022-11-17T17:57:00.616Z,8.83
2022-11-17T17:59:31.361Z,14.25
2022-11-17T18:01:59.132Z,11.67
2022-11-17T18:04:28.429Z,7.57
2022-11-17T18:06:56.469Z,6.87
2022-11-17T18:09:26.925Z,12.47
2022-11-17T18:11:56.136Z,9.95
2022-11-17T18:14:26.557Z,13.23
2022-11-17T18:16:57.297Z,7.87
2022-11-17T18:19:31.534Z,10.33
2022-11-17T18:21:54.982Z,12.43
2022-11-17T18:24:23.567Z,10.57
2022-11-17T18:27:01.352Z,19.20
2022-11-17T18:29:31.268Z,10.87
2022-11-17T18:32:03.540Z,11.50
2022-11-17T18:34:34.585Z,12.70
2022-11-17T18:37:05.654Z,12.07
2022-11-17T18:39:34.613Z,7.87
2022-11-17T18:42:07.298Z,12.33
2022-11-17T18:44:43.261Z,10.57
2022-11-17T18:47:11.012Z,9.57
2022-11-17T18:49:38.920Z,16.53
2022-11-17T18:52:09.163Z,9.07
2022-11-17T18:54:36.975Z,13.67
2022-11-17T18:57:05.601Z,11.90
2022-11-17T18:59:35.725Z,7.47
2022-11-17T19:02:02.968Z,9.03
2022-11-17T19:04:30.785Z,8.03
2022-11-17T19:07:01.718Z,8.63
2022-11-17T19:09:31.473Z,10.87
2022-11-17T19:11:59.323Z,10.43
2022-11-17T19:14:29.755Z,14.10
2022-11-17T19:16:58.435Z,10.17
2022-11-17T19:19:31.843Z,17.07
2022-11-17T19:21:59.182Z,11.77
2022-11-17T19:24:29.279Z,14.67
2022-11-17T19:26:57.983Z,14.93
2022-11-17T19:29:29.429Z,12.47
2022-11-17T19:31:57.192Z,13.87
2022-11-17T19:34:26.320Z,16.60
2022-11-17T19:36:56.094Z,16.40
2022-11-17T19:39:24.700Z,19.60
2022-11-17T19:41:55.445Z,16.33
2022-11-17T19:44:26.691Z,18.27
2022-11-17T19:46:52.502Z,22.07
2022-11-17T19:49:20.283Z,20.13
2022-11-17T19:51:49.818Z,19.43
2022-11-17T19:54:16.396Z,22.90
2022-11-17T19:56:44.198Z,17.53
2022-11-17T19:59:16.150Z,18.97
2022-11-17T20:01:41.297Z,13.87
2022-11-17T20:04:10.250Z,14.33
2022-11-17T20:06:40.962Z,16.50
2022-11-17T20:09:11.512Z,20.47
2022-11-17T20:11:44.904Z,16.07
2022-11-17T20:14:15.058Z,19.23
2022-11-17T20:16:44.132Z,11.00
2022-11-17T20:19:13.101Z,16.30
2022-11-17T20:21:41.066Z,14.10
2022-11-17T20:24:14.126Z,16.63
2022-11-17T20:26:40.227Z,12.47
2022-11-17T20:29:08.134Z,17.53
2022-11-17T20:31:35.691Z,19.33
2022-11-17T20:34:06.218Z,22.47
2022-11-17T20:36:31.556Z,15.50
2022-11-17T20:38:59.140Z,23.57
2022-11-17T20:41:27.449Z,20.23
2022-11-17T20:43:55.083Z,14.87
2022-11-17T20:46:22.656Z,21.47
2022-11-17T20:48:50.242Z,18.00
2022-11-17T20:51:17.877Z,21.47
2022-11-17T20:53:45.432Z,16.30
2022-11-17T20:56:13.762Z,16.13
2022-11-17T20:58:42.558Z,15.87
2022-11-17T21:01:10.188Z,14.93
2022-11-17T21:03:37.716Z,18.83
2022-11-17T21:06:05.377Z,16.87
2022-11-17T21:08:33.700Z,16.10
2022-11-17T21:11:01.287Z,19.90
2022-11-17T21:13:29.014Z,15.23
2022-11-17T21:16:11.338Z,15.20
2022-11-17T21:18:38.964Z,12.70
2022-11-17T21:21:06.526Z,20.05
2022-11-17T21:23:34.100Z,20.67
2022-11-17T21:26:04.677Z,14.17
2022-11-17T21:28:32.990Z,17.10
2022-11-17T21:31:03.260Z,18.73
2022-11-17T21:33:30.905Z,16.30
2022-11-17T21:36:01.145Z,15.33
2022-11-17T21:38:28.700Z,16.80
2022-11-17T21:40:56.332Z,16.70
2022-11-17T21:43:23.934Z,17.23
2022-11-17T21:45:52.307Z,17.27
2022-11-17T21:48:20.698Z,14.70
2022-11-17T21:50:49.010Z,14.27
2022-11-17T21:53:16.558Z,16.43
2022-11-17T21:55:44.203Z,13.33
2022-11-17T21:58:11.746Z,16.20
2022-11-17T22:00:40.154Z,20.33
2022-11-17T22:03:07.705Z,12.63
2022-11-17T22:05:35.280Z,17.37
2022-11-17T22:08:02.835Z,18.57
2022-11-17T22:10:30.445Z,18.97
2022-11-17T22:12:58.011Z,15.90
2022-11-17T22:15:25.585Z,22.80
2022-11-17T22:17:54.935Z,17.73
2022-11-17T22:20:22.480Z,14.67
2022-11-17T22:22:50.015Z,18.73
2022-11-17T22:25:43.615Z,15.13
2022-11-17T22:27:46.957Z,20.83
2022-11-17T22:30:15.296Z,18.95
2022-11-17T22:32:45.457Z,21.75
2022-11-17T22:35:10.451Z,22.60
2022-11-17T22:37:38.764Z,18.75
2022-11-17T22:40:06.524Z,14.80
2022-11-17T22:42:34.100Z,18.07
2022-11-17T22:45:01.668Z,9.43
2022-11-17T22:47:29.288Z,14.50
2022-11-17T22:49:57.631Z,17.37
2022-11-17T22:52:25.217Z,19.37
2022-11-17T22:54:53.625Z,15.95
2022-11-17T22:57:21.221Z,18.60
2022-11-17T22:59:48.794Z,8.63
2022-11-17T23:02:16.397Z,13.87
2022-11-17T23:04:43.991Z,15.57
2022-11-17T23:07:11.578Z,16.23
2022-11-17T23:09:39.162Z,11.90
2022-11-17T23:12:07.485Z,16.07
2022-11-17T23:14:35.059Z,16.57
2022-11-17T23:17:02.664Z,11.70
2022-11-17T23:19:31.001Z,17.07
2022-11-17T23:21:58.563Z,11.27
2022-11-17T23:24:26.148Z,12.10
2022-11-17T23:26:54.483Z,12.53
2022-11-17T23:29:22.035Z,11.37
2022-11-17T23:31:49.642Z,9.07
2022-11-17T23:34:17.991Z,11.37
2022-11-17T23:36:45.555Z,11.93
2022-11-17T23:39:13.139Z,16.50
2022-11-17T23:41:41.481Z,13.80
2022-11-17T23:44:09.027Z,16.87
2022-11-17T23:46:36.611Z,18.27
2022-11-17T23:49:04.196Z,14.13
2022-11-17T23:51:32.517Z,13.27
2022-11-17T23:54:00.156Z,11.17
2022-11-17T23:56:27.735Z,11.77
2022-11-17T23:58:55.350Z,12.27
